sensor_id;sensor_type;location;lat;lon;timestamp;temperature;humidity
17178;DHT22;8704;52.006;4.374;2022-12-29T00:00:06;10.60;99.90
17178;DHT22;8704;52.006;4.374;2022-12-29T00:02:36;10.50;99.90
17178;DHT22;8704;52.006;4.374;2022-12-29T00:05:05;10.50;99.90
17178;DHT22;8704;52.006;4.374;2022-12-29T00:07:33;10.50;99.90
17178;DHT22;8704;52.006;4.374;2022-12-29T00:10:01;10.50;99.90
17178;DHT22;8704;52.006;4.374;2022-12-29T00:12:29;10.50;99.90
17178;DHT22;8704;52.006;4.374;2022-12-29T00:15:17;10.50;99.90
17178;DHT22;8704;52.006;4.374;2022-12-29T00:18:05;10.50;99.90
17178;DHT22;8704;52.006;4.374;2022-12-29T00:20:33;10.60;99.90
17178;DHT22;8704;52.006;4.374;2022-12-29T00:23:30;10.50;99.90
17178;DHT22;8704;52.006;4.374;2022-12-29T00:26:16;10.50;99.90
17178;DHT22;8704;52.006;4.374;2022-12-29T00:29:02;10.70;99.90
17178;DHT22;8704;52.006;4.374;2022-12-29T00:31:48;10.60;99.90
17178;DHT22;8704;52.006;4.374;2022-12-29T00:34:35;10.60;99.90
17178;DHT22;8704;52.006;4.374;2022-12-29T00:37:20;10.60;99.90
17178;DHT22;8704;52.006;4.374;2022-12-29T00:40:09;10.60;99.90
17178;DHT22;8704;52.006;4.374;2022-12-29T00:42:54;10.60;99.90
17178;DHT22;8704;52.006;4.374;2022-12-29T00:45:40;10.60;99.90
17178;DHT22;8704;52.006;4.374;2022-12-29T00:48:08;10.60;99.90
17178;DHT22;8704;52.006;4.374;2022-12-29T00:50:37;10.60;99.90
17178;DHT22;8704;52.006;4.374;2022-12-29T00:53:04;10.60;99.90
17178;DHT22;8704;52.006;4.374;2022-12-29T00:55:36;10.60;99.90
17178;DHT22;8704;52.006;4.374;2022-12-29T00:58:04;10.50;99.90
17178;DHT22;8704;52.006;4.374;2022-12-29T01:00:32;10.60;99.90
17178;DHT22;8704;52.006;4.374;2022-12-29T01:03:00;10.50;99.90
17178;DHT22;8704;52.006;4.374;2022-12-29T01:05:29;11.60;99.90
17178;DHT22;8704;52.006;4.374;2022-12-29T01:07:58;10.40;99.90
17178;DHT22;8704;52.006;4.374;2022-12-29T01:10:26;10.70;99.90
17178;DHT22;8704;52.006;4.374;2022-12-29T01:12:53;11.30;99.90
17178;DHT22;8704;52.006;4.374;2022-12-29T01:15:21;10.40;99.90
17178;DHT22;8704;52.006;4.374;2022-12-29T01:17:49;10.40;99.90
17178;DHT22;8704;52.006;4.374;2022-12-29T01:20:18;10.40;99.90
17178;DHT22;8704;52.006;4.374;2022-12-29T01:22:46;10.40;99.90
17178;DHT22;8704;52.006;4.374;2022-12-29T01:25:16;10.40;99.90
17178;DHT22;8704;52.006;4.374;2022-12-29T01:27:44;10.40;99.90
17178;DHT22;8704;52.006;4.374;2022-12-29T01:30:12;10.40;99.90
17178;DHT22;8704;52.006;4.374;2022-12-29T01:32:40;10.90;99.90
17178;DHT22;8704;52.006;4.374;2022-12-29T01:35:08;10.40;99.90
17178;DHT22;8704;52.006;4.374;2022-12-29T01:37:37;10.50;99.90
17178;DHT22;8704;52.006;4.374;2022-12-29T01:40:06;10.80;99.90
17178;DHT22;8704;52.006;4.374;2022-12-29T01:42:35;10.30;99.90
17178;DHT22;8704;52.006;4.374;2022-12-29T01:45:09;10.30;99.90
17178;DHT22;8704;52.006;4.374;2022-12-29T01:47:39;10.30;99.90
17178;DHT22;8704;52.006;4.374;2022-12-29T01:50:10;10.20;99.90
17178;DHT22;8704;52.006;4.374;2022-12-29T01:52:43;10.20;99.90
17178;DHT22;8704;52.006;4.374;2022-12-29T01:55:13;10.20;99.90
17178;DHT22;8704;52.006;4.374;2022-12-29T01:57:47;10.20;99.90
17178;DHT22;8704;52.006;4.374;2022-12-29T02:00:16;10.20;99.90
17178;DHT22;8704;52.006;4.374;2022-12-29T02:02:49;10.20;99.90
17178;DHT22;8704;52.006;4.374;2022-12-29T02:05:23;10.20;99.90
17178;DHT22;8704;52.006;4.374;2022-12-29T02:07:53;10.20;99.90
17178;DHT22;8704;52.006;4.374;2022-12-29T02:10:23;10.20;99.90
17178;DHT22;8704;52.006;4.374;2022-12-29T02:12:54;10.30;99.90
17178;DHT22;8704;52.006;4.374;2022-12-29T02:15:30;11.30;99.90
17178;DHT22;8704;52.006;4.374;2022-12-29T02:18:13;10.30;99.90
17178;DHT22;8704;52.006;4.374;2022-12-29T02:24:37;10.30;99.90
17178;DHT22;8704;52.006;4.374;2022-12-29T02:27:31;10.30;99.90
17178;DHT22;8704;52.006;4.374;2022-12-29T02:30:15;10.20;99.90
17178;DHT22;8704;52.006;4.374;2022-12-29T02:32:53;10.20;99.90
17178;DHT22;8704;52.006;4.374;2022-12-29T02:35:29;10.10;99.90
17178;DHT22;8704;52.006;4.374;2022-12-29T02:38:07;10.10;99.90
17178;DHT22;8704;52.006;4.374;2022-12-29T02:40:41;10.90;99.90
17178;DHT22;8704;52.006;4.374;2022-12-29T02:43:17;9.90;99.90
17178;DHT22;8704;52.006;4.374;2022-12-29T02:45:51;9.90;99.90
17178;DHT22;8704;52.006;4.374;2022-12-29T02:48:25;9.90;99.90
17178;DHT22;8704;52.006;4.374;2022-12-29T02:50:59;9.80;99.90
17178;DHT22;8704;52.006;4.374;2022-12-29T02:53:30;10.80;99.90
17178;DHT22;8704;52.006;4.374;2022-12-29T02:56:16;9.80;99.90
17178;DHT22;8704;52.006;4.374;2022-12-29T02:58:44;9.80;99.90
17178;DHT22;8704;52.006;4.374;2022-12-29T03:01:29;9.80;99.90
17178;DHT22;8704;52.006;4.374;2022-12-29T03:04:21;9.80;99.90
17178;DHT22;8704;52.006;4.374;2022-12-29T03:07:03;9.80;99.90
17178;DHT22;8704;52.006;4.374;2022-12-29T03:09:39;9.80;99.90
17178;DHT22;8704;52.006;4.374;2022-12-29T03:12:19;9.80;99.90
17178;DHT22;8704;52.006;4.374;2022-12-29T03:14:59;10.30;99.90
17178;DHT22;8704;52.006;4.374;2022-12-29T03:17:51;9.70;99.90
17178;DHT22;8704;52.006;4.374;2022-12-29T03:20:26;9.70;99.90
17178;DHT22;8704;52.006;4.374;2022-12-29T03:23:00;9.70;99.90
17178;DHT22;8704;52.006;4.374;2022-12-29T03:25:31;9.80;99.90
17178;DHT22;8704;52.006;4.374;2022-12-29T03:28:04;9.80;99.90
17178;DHT22;8704;52.006;4.374;2022-12-29T03:30:34;9.80;99.90
17178;DHT22;8704;52.006;4.374;2022-12-29T03:33:06;9.80;99.90
17178;DHT22;8704;52.006;4.374;2022-12-29T03:35:38;9.90;99.90
17178;DHT22;8704;52.006;4.374;2022-12-29T03:38:13;10.80;99.90
17178;DHT22;8704;52.006;4.374;2022-12-29T03:40:47;9.80;99.90
17178;DHT22;8704;52.006;4.374;2022-12-29T03:43:16;10.20;99.90
17178;DHT22;8704;52.006;4.374;2022-12-29T03:45:45;9.80;99.90
17178;DHT22;8704;52.006;4.374;2022-12-29T03:48:13;9.90;99.90
17178;DHT22;8704;52.006;4.374;2022-12-29T03:50:42;9.70;99.90
17178;DHT22;8704;52.006;4.374;2022-12-29T03:53:10;9.70;99.90
17178;DHT22;8704;52.006;4.374;2022-12-29T03:55:38;9.70;99.90
17178;DHT22;8704;52.006;4.374;2022-12-29T03:58:06;9.70;99.90
17178;DHT22;8704;52.006;4.374;2022-12-29T04:00:34;9.70;99.90
17178;DHT22;8704;52.006;4.374;2022-12-29T04:03:02;9.70;99.90
17178;DHT22;8704;52.006;4.374;2022-12-29T04:05:30;9.60;99.90
17178;DHT22;8704;52.006;4.374;2022-12-29T04:07:59;9.60;99.90
17178;DHT22;8704;52.006;4.374;2022-12-29T04:10:27;9.60;99.90
17178;DHT22;8704;52.006;4.374;2022-12-29T04:12:55;9.60;99.90
17178;DHT22;8704;52.006;4.374;2022-12-29T04:15:23;9.70;99.90
17178;DHT22;8704;52.006;4.374;2022-12-29T04:17:53;9.50;99.90
17178;DHT22;8704;52.006;4.374;2022-12-29T04:20:21;9.60;99.90
17178;DHT22;8704;52.006;4.374;2022-12-29T04:23:07;9.50;99.90
17178;DHT22;8704;52.006;4.374;2022-12-29T04:25:35;9.50;99.90
17178;DHT22;8704;52.006;4.374;2022-12-29T04:28:03;9.50;99.90
17178;DHT22;8704;52.006;4.374;2022-12-29T04:30:32;9.50;99.90
17178;DHT22;8704;52.006;4.374;2022-12-29T04:33:00;9.50;99.90
17178;DHT22;8704;52.006;4.374;2022-12-29T04:35:28;10.50;99.90
17178;DHT22;8704;52.006;4.374;2022-12-29T04:37:56;9.40;99.90
17178;DHT22;8704;52.006;4.374;2022-12-29T04:40:25;9.40;99.90
17178;DHT22;8704;52.006;4.374;2022-12-29T04:42:53;10.00;99.90
17178;DHT22;8704;52.006;4.374;2022-12-29T04:45:21;9.40;99.90
17178;DHT22;8704;52.006;4.374;2022-12-29T04:47:49;9.40;99.90
17178;DHT22;8704;52.006;4.374;2022-12-29T04:50:17;9.30;99.90
17178;DHT22;8704;52.006;4.374;2022-12-29T04:52:45;9.30;99.90
17178;DHT22;8704;52.006;4.374;2022-12-29T04:55:14;9.30;99.90
17178;DHT22;8704;52.006;4.374;2022-12-29T04:57:45;9.30;99.90
17178;DHT22;8704;52.006;4.374;2022-12-29T05:00:14;9.80;99.90
17178;DHT22;8704;52.006;4.374;2022-12-29T05:02:42;9.30;99.90
17178;DHT22;8704;52.006;4.374;2022-12-29T05:05:10;9.30;99.90
17178;DHT22;8704;52.006;4.374;2022-12-29T05:07:38;9.30;99.90
17178;DHT22;8704;52.006;4.374;2022-12-29T05:10:07;9.70;99.90
17178;DHT22;8704;52.006;4.374;2022-12-29T05:12:36;9.30;99.90
17178;DHT22;8704;52.006;4.374;2022-12-29T05:15:08;9.30;99.90
17178;DHT22;8704;52.006;4.374;2022-12-29T05:17:36;9.20;99.90
17178;DHT22;8704;52.006;4.374;2022-12-29T05:20:06;9.30;99.90
17178;DHT22;8704;52.006;4.374;2022-12-29T05:22:34;9.20;99.90
17178;DHT22;8704;52.006;4.374;2022-12-29T05:25:02;9.20;99.90
17178;DHT22;8704;52.006;4.374;2022-12-29T05:27:30;9.20;99.90
17178;DHT22;8704;52.006;4.374;2022-12-29T05:29:59;9.20;99.90
17178;DHT22;8704;52.006;4.374;2022-12-29T05:32:28;9.20;99.90
17178;DHT22;8704;52.006;4.374;2022-12-29T05:34:56;9.70;99.90
17178;DHT22;8704;52.006;4.374;2022-12-29T05:37:24;9.20;99.90
17178;DHT22;8704;52.006;4.374;2022-12-29T05:39:52;9.20;99.90
17178;DHT22;8704;52.006;4.374;2022-12-29T05:42:20;9.20;99.90
17178;DHT22;8704;52.006;4.374;2022-12-29T05:44:48;9.20;99.90
17178;DHT22;8704;52.006;4.374;2022-12-29T05:47:20;9.20;99.90
17178;DHT22;8704;52.006;4.374;2022-12-29T05:49:49;10.10;99.90
17178;DHT22;8704;52.006;4.374;2022-12-29T05:52:18;9.60;99.90
17178;DHT22;8704;52.006;4.374;2022-12-29T05:54:46;9.20;99.90
17178;DHT22;8704;52.006;4.374;2022-12-29T05:57:14;9.50;99.90
17178;DHT22;8704;52.006;4.374;2022-12-29T05:59:42;9.20;99.90
17178;DHT22;8704;52.006;4.374;2022-12-29T06:02:10;9.10;99.90
17178;DHT22;8704;52.006;4.374;2022-12-29T06:04:38;9.10;99.90
17178;DHT22;8704;52.006;4.374;2022-12-29T06:07:07;9.00;99.90
17178;DHT22;8704;52.006;4.374;2022-12-29T06:09:35;9.00;99.90
17178;DHT22;8704;52.006;4.374;2022-12-29T06:12:04;9.70;99.90
17178;DHT22;8704;52.006;4.374;2022-12-29T06:14:32;9.00;99.90
17178;DHT22;8704;52.006;4.374;2022-12-29T06:17:00;9.00;99.90
17178;DHT22;8704;52.006;4.374;2022-12-29T06:19:28;8.90;99.90
17178;DHT22;8704;52.006;4.374;2022-12-29T06:21:56;8.90;99.90
17178;DHT22;8704;52.006;4.374;2022-12-29T06:24:26;8.90;99.90
17178;DHT22;8704;52.006;4.374;2022-12-29T06:26:54;9.00;99.90
17178;DHT22;8704;52.006;4.374;2022-12-29T06:29:22;9.00;99.90
17178;DHT22;8704;52.006;4.374;2022-12-29T06:31:50;8.90;99.90
17178;DHT22;8704;52.006;4.374;2022-12-29T06:34:22;8.90;99.90
17178;DHT22;8704;52.006;4.374;2022-12-29T06:36:50;8.80;99.90
17178;DHT22;8704;52.006;4.374;2022-12-29T06:39:19;8.90;99.90
17178;DHT22;8704;52.006;4.374;2022-12-29T06:41:48;8.80;99.90
17178;DHT22;8704;52.006;4.374;2022-12-29T06:44:19;8.80;99.90
17178;DHT22;8704;52.006;4.374;2022-12-29T06:46:47;8.80;99.90
17178;DHT22;8704;52.006;4.374;2022-12-29T06:49:15;8.80;99.90
17178;DHT22;8704;52.006;4.374;2022-12-29T06:51:43;8.80;99.90
17178;DHT22;8704;52.006;4.374;2022-12-29T06:54:11;8.80;99.90
17178;DHT22;8704;52.006;4.374;2022-12-29T06:56:39;9.70;99.90
17178;DHT22;8704;52.006;4.374;2022-12-29T06:59:09;8.70;99.90
17178;DHT22;8704;52.006;4.374;2022-12-29T07:01:37;9.50;99.90
17178;DHT22;8704;52.006;4.374;2022-12-29T07:04:05;9.00;99.90
17178;DHT22;8704;52.006;4.374;2022-12-29T07:06:33;8.70;99.90
17178;DHT22;8704;52.006;4.374;2022-12-29T07:09:01;9.60;99.90
17178;DHT22;8704;52.006;4.374;2022-12-29T07:11:29;9.70;99.90
17178;DHT22;8704;52.006;4.374;2022-12-29T07:13:57;8.80;99.90
17178;DHT22;8704;52.006;4.374;2022-12-29T07:16:32;8.70;99.90
17178;DHT22;8704;52.006;4.374;2022-12-29T07:19:01;8.70;99.90
17178;DHT22;8704;52.006;4.374;2022-12-29T07:21:29;8.60;99.90
17178;DHT22;8704;52.006;4.374;2022-12-29T07:23:57;9.90;99.90
17178;DHT22;8704;52.006;4.374;2022-12-29T07:26:25;9.30;99.90
17178;DHT22;8704;52.006;4.374;2022-12-29T07:29:00;8.80;99.90
17178;DHT22;8704;52.006;4.374;2022-12-29T07:31:28;8.80;99.90
17178;DHT22;8704;52.006;4.374;2022-12-29T07:33:57;8.90;99.90
17178;DHT22;8704;52.006;4.374;2022-12-29T07:36:25;8.90;99.90
17178;DHT22;8704;52.006;4.374;2022-12-29T07:38:59;8.80;99.90
17178;DHT22;8704;52.006;4.374;2022-12-29T07:41:27;9.70;99.90
17178;DHT22;8704;52.006;4.374;2022-12-29T07:43:55;9.60;99.90
17178;DHT22;8704;52.006;4.374;2022-12-29T07:46:24;8.90;99.90
17178;DHT22;8704;52.006;4.374;2022-12-29T07:49:13;9.70;99.90
17178;DHT22;8704;52.006;4.374;2022-12-29T07:51:41;8.90;99.90
17178;DHT22;8704;52.006;4.374;2022-12-29T07:54:09;8.90;99.90
17178;DHT22;8704;52.006;4.374;2022-12-29T07:56:38;9.20;99.90
17178;DHT22;8704;52.006;4.374;2022-12-29T07:59:07;9.00;99.90
17178;DHT22;8704;52.006;4.374;2022-12-29T08:01:35;9.40;99.90
17178;DHT22;8704;52.006;4.374;2022-12-29T08:04:03;9.00;99.90
17178;DHT22;8704;52.006;4.374;2022-12-29T08:06:33;9.00;99.90
17178;DHT22;8704;52.006;4.374;2022-12-29T08:09:01;9.50;99.90
17178;DHT22;8704;52.006;4.374;2022-12-29T08:11:40;10.10;99.90
17178;DHT22;8704;52.006;4.374;2022-12-29T08:14:09;9.10;99.90
17178;DHT22;8704;52.006;4.374;2022-12-29T08:16:37;9.20;99.90
17178;DHT22;8704;52.006;4.374;2022-12-29T08:19:05;9.00;99.90
17178;DHT22;8704;52.006;4.374;2022-12-29T08:21:34;8.90;99.90
17178;DHT22;8704;52.006;4.374;2022-12-29T08:24:03;9.30;99.90
17178;DHT22;8704;52.006;4.374;2022-12-29T08:26:31;8.90;99.90
17178;DHT22;8704;52.006;4.374;2022-12-29T08:28:59;9.10;99.90
17178;DHT22;8704;52.006;4.374;2022-12-29T08:31:27;8.90;99.90
17178;DHT22;8704;52.006;4.374;2022-12-29T08:33:58;8.90;99.90
17178;DHT22;8704;52.006;4.374;2022-12-29T08:36:28;8.90;99.90
17178;DHT22;8704;52.006;4.374;2022-12-29T08:38:57;8.80;99.90
17178;DHT22;8704;52.006;4.374;2022-12-29T08:41:25;8.80;99.90
17178;DHT22;8704;52.006;4.374;2022-12-29T08:43:53;8.80;99.90
17178;DHT22;8704;52.006;4.374;2022-12-29T08:46:21;8.80;99.90
17178;DHT22;8704;52.006;4.374;2022-12-29T08:48:50;8.80;99.90
17178;DHT22;8704;52.006;4.374;2022-12-29T08:51:18;8.80;99.90
17178;DHT22;8704;52.006;4.374;2022-12-29T08:53:51;9.20;99.90
17178;DHT22;8704;52.006;4.374;2022-12-29T08:56:20;8.70;99.90
17178;DHT22;8704;52.006;4.374;2022-12-29T08:58:50;8.60;99.90
17178;DHT22;8704;52.006;4.374;2022-12-29T09:01:18;9.40;99.90
17178;DHT22;8704;52.006;4.374;2022-12-29T09:03:47;8.80;99.90
17178;DHT22;8704;52.006;4.374;2022-12-29T09:06:35;8.80;99.90
17178;DHT22;8704;52.006;4.374;2022-12-29T09:09:06;8.80;99.90
17178;DHT22;8704;52.006;4.374;2022-12-29T09:11:36;8.80;99.90
17178;DHT22;8704;52.006;4.374;2022-12-29T09:14:04;8.70;99.90
17178;DHT22;8704;52.006;4.374;2022-12-29T09:16:32;8.70;99.90
17178;DHT22;8704;52.006;4.374;2022-12-29T09:19:01;8.80;99.90
17178;DHT22;8704;52.006;4.374;2022-12-29T09:21:29;9.60;99.90
17178;DHT22;8704;52.006;4.374;2022-12-29T09:23:57;8.80;99.90
17178;DHT22;8704;52.006;4.374;2022-12-29T09:26:25;8.80;99.90
17178;DHT22;8704;52.006;4.374;2022-12-29T09:28:54;8.80;99.90
17178;DHT22;8704;52.006;4.374;2022-12-29T09:31:23;8.80;99.90
17178;DHT22;8704;52.006;4.374;2022-12-29T09:33:52;8.80;99.90
17178;DHT22;8704;52.006;4.374;2022-12-29T09:36:20;9.00;99.90
17178;DHT22;8704;52.006;4.374;2022-12-29T09:38:47;8.90;99.90
17178;DHT22;8704;52.006;4.374;2022-12-29T09:41:22;9.20;99.90
17178;DHT22;8704;52.006;4.374;2022-12-29T09:44:02;9.00;99.90
17178;DHT22;8704;52.006;4.374;2022-12-29T09:46:34;9.00;99.90
17178;DHT22;8704;52.006;4.374;2022-12-29T09:49:09;9.00;99.90
17178;DHT22;8704;52.006;4.374;2022-12-29T09:51:44;9.00;99.90
17178;DHT22;8704;52.006;4.374;2022-12-29T09:54:23;10.20;99.90
17178;DHT22;8704;52.006;4.374;2022-12-29T09:56:52;9.10;99.90
17178;DHT22;8704;52.006;4.374;2022-12-29T09:59:25;9.80;99.90
17178;DHT22;8704;52.006;4.374;2022-12-29T10:01:59;9.50;99.90
17178;DHT22;8704;52.006;4.374;2022-12-29T10:04:30;9.10;99.90
17178;DHT22;8704;52.006;4.374;2022-12-29T10:07:03;9.20;99.90
17178;DHT22;8704;52.006;4.374;2022-12-29T10:10:03;9.50;99.90
17178;DHT22;8704;52.006;4.374;2022-12-29T10:12:50;9.60;99.90
17178;DHT22;8704;52.006;4.374;2022-12-29T10:15:33;9.10;99.90
17178;DHT22;8704;52.006;4.374;2022-12-29T10:18:13;9.10;99.90
17178;DHT22;8704;52.006;4.374;2022-12-29T10:20:49;9.10;99.90
17178;DHT22;8704;52.006;4.374;2022-12-29T10:23:26;9.20;99.90
17178;DHT22;8704;52.006;4.374;2022-12-29T10:25:56;9.20;99.90
17178;DHT22;8704;52.006;4.374;2022-12-29T10:28:34;9.20;99.90
17178;DHT22;8704;52.006;4.374;2022-12-29T10:31:09;9.20;99.90
17178;DHT22;8704;52.006;4.374;2022-12-29T10:33:41;9.20;99.90
17178;DHT22;8704;52.006;4.374;2022-12-29T10:36:14;9.20;99.90
17178;DHT22;8704;52.006;4.374;2022-12-29T10:38:50;9.20;99.90
17178;DHT22;8704;52.006;4.374;2022-12-29T10:41:23;9.20;99.90
17178;DHT22;8704;52.006;4.374;2022-12-29T10:43:54;9.30;99.90
17178;DHT22;8704;52.006;4.374;2022-12-29T10:46:28;9.60;99.90
17178;DHT22;8704;52.006;4.374;2022-12-29T10:48:57;9.50;99.90
17178;DHT22;8704;52.006;4.374;2022-12-29T10:51:26;10.60;99.90
17178;DHT22;8704;52.006;4.374;2022-12-29T10:53:59;9.50;99.90
17178;DHT22;8704;52.006;4.374;2022-12-29T10:56:32;10.00;99.90
17178;DHT22;8704;52.006;4.374;2022-12-29T10:59:03;9.80;99.90
17178;DHT22;8704;52.006;4.374;2022-12-29T11:01:43;9.70;99.90
17178;DHT22;8704;52.006;4.374;2022-12-29T11:07:10;9.90;99.90
17178;DHT22;8704;52.006;4.374;2022-12-29T11:09:43;9.90;99.90
17178;DHT22;8704;52.006;4.374;2022-12-29T11:12:19;10.00;99.90
17178;DHT22;8704;52.006;4.374;2022-12-29T11:14:48;9.90;99.90
17178;DHT22;8704;52.006;4.374;2022-12-29T11:17:29;9.90;99.90
17178;DHT22;8704;52.006;4.374;2022-12-29T11:19:57;9.90;99.90
17178;DHT22;8704;52.006;4.374;2022-12-29T11:22:27;9.90;99.90
17178;DHT22;8704;52.006;4.374;2022-12-29T11:25:06;10.00;99.90
17178;DHT22;8704;52.006;4.374;2022-12-29T11:27:38;9.80;99.90
17178;DHT22;8704;52.006;4.374;2022-12-29T11:30:23;9.80;99.90
17178;DHT22;8704;52.006;4.374;2022-12-29T11:32:53;10.10;99.90
17178;DHT22;8704;52.006;4.374;2022-12-29T11:35:34;9.80;99.90
17178;DHT22;8704;52.006;4.374;2022-12-29T11:38:03;9.80;99.90
17178;DHT22;8704;52.006;4.374;2022-12-29T11:40:31;9.70;99.90
17178;DHT22;8704;52.006;4.374;2022-12-29T11:43:05;9.70;99.90
17178;DHT22;8704;52.006;4.374;2022-12-29T11:45:35;9.70;99.90
17178;DHT22;8704;52.006;4.374;2022-12-29T11:48:12;9.70;99.90
17178;DHT22;8704;52.006;4.374;2022-12-29T11:50:49;9.70;99.90
17178;DHT22;8704;52.006;4.374;2022-12-29T11:53:22;9.90;99.90
17178;DHT22;8704;52.006;4.374;2022-12-29T11:55:53;9.70;99.90
17178;DHT22;8704;52.006;4.374;2022-12-29T11:58:28;9.70;99.90
17178;DHT22;8704;52.006;4.374;2022-12-29T12:01:01;9.70;99.90
17178;DHT22;8704;52.006;4.374;2022-12-29T12:03:32;10.10;99.90
17178;DHT22;8704;52.006;4.374;2022-12-29T12:06:02;9.80;99.90
17178;DHT22;8704;52.006;4.374;2022-12-29T12:08:34;9.80;99.90
17178;DHT22;8704;52.006;4.374;2022-12-29T12:11:09;9.80;99.90
17178;DHT22;8704;52.006;4.374;2022-12-29T12:13:42;9.80;99.90
17178;DHT22;8704;52.006;4.374;2022-12-29T12:16:15;10.30;99.90
17178;DHT22;8704;52.006;4.374;2022-12-29T12:18:48;10.80;99.90
17178;DHT22;8704;52.006;4.374;2022-12-29T12:21:24;9.90;99.90
17178;DHT22;8704;52.006;4.374;2022-12-29T12:24:13;9.90;99.90
17178;DHT22;8704;52.006;4.374;2022-12-29T12:26:55;9.90;99.90
17178;DHT22;8704;52.006;4.374;2022-12-29T12:29:26;10.00;99.90
17178;DHT22;8704;52.006;4.374;2022-12-29T12:32:05;10.00;99.90
17178;DHT22;8704;52.006;4.374;2022-12-29T12:34:39;10.00;99.90
17178;DHT22;8704;52.006;4.374;2022-12-29T12:37:23;10.00;99.90
17178;DHT22;8704;52.006;4.374;2022-12-29T12:40:22;10.00;99.90
17178;DHT22;8704;52.006;4.374;2022-12-29T12:43:00;10.00;99.90
17178;DHT22;8704;52.006;4.374;2022-12-29T12:45:42;10.10;99.90
17178;DHT22;8704;52.006;4.374;2022-12-29T12:48:26;10.70;99.90
17178;DHT22;8704;52.006;4.374;2022-12-29T12:51:07;10.70;99.90
17178;DHT22;8704;52.006;4.374;2022-12-29T12:53:49;10.10;99.90
17178;DHT22;8704;52.006;4.374;2022-12-29T12:59:30;10.10;99.90
17178;DHT22;8704;52.006;4.374;2022-12-29T13:02:13;10.10;99.90
17178;DHT22;8704;52.006;4.374;2022-12-29T13:04:56;10.20;99.90
17178;DHT22;8704;52.006;4.374;2022-12-29T13:07:37;10.00;99.90
17178;DHT22;8704;52.006;4.374;2022-12-29T13:10:22;10.10;99.90
17178;DHT22;8704;52.006;4.374;2022-12-29T13:12:58;10.00;99.90
17178;DHT22;8704;52.006;4.374;2022-12-29T13:15:40;10.00;99.90
17178;DHT22;8704;52.006;4.374;2022-12-29T13:18:18;10.10;99.90
17178;DHT22;8704;52.006;4.374;2022-12-29T13:20:52;10.10;99.90
17178;DHT22;8704;52.006;4.374;2022-12-29T13:23:27;10.40;99.90
17178;DHT22;8704;52.006;4.374;2022-12-29T13:26:04;10.10;99.90
17178;DHT22;8704;52.006;4.374;2022-12-29T13:28:40;10.50;99.90
17178;DHT22;8704;52.006;4.374;2022-12-29T13:31:15;10.40;99.90
17178;DHT22;8704;52.006;4.374;2022-12-29T13:33:51;10.10;99.90
17178;DHT22;8704;52.006;4.374;2022-12-29T13:36:27;10.30;99.90
17178;DHT22;8704;52.006;4.374;2022-12-29T13:39:00;10.00;99.90
17178;DHT22;8704;52.006;4.374;2022-12-29T13:41:33;10.00;99.90
17178;DHT22;8704;52.006;4.374;2022-12-29T13:44:03;9.90;99.90
17178;DHT22;8704;52.006;4.374;2022-12-29T13:46:36;9.90;99.90
17178;DHT22;8704;52.006;4.374;2022-12-29T13:49:11;9.90;99.90
17178;DHT22;8704;52.006;4.374;2022-12-29T13:51:43;9.80;99.90
17178;DHT22;8704;52.006;4.374;2022-12-29T13:54:26;9.90;99.90
17178;DHT22;8704;52.006;4.374;2022-12-29T13:56:59;9.70;99.90
17178;DHT22;8704;52.006;4.374;2022-12-29T13:59:38;10.70;99.90
17178;DHT22;8704;52.006;4.374;2022-12-29T14:02:18;9.70;99.90
17178;DHT22;8704;52.006;4.374;2022-12-29T14:04:58;10.10;99.90
17178;DHT22;8704;52.006;4.374;2022-12-29T14:07:27;9.60;99.90
17178;DHT22;8704;52.006;4.374;2022-12-29T14:09:58;9.60;99.90
17178;DHT22;8704;52.006;4.374;2022-12-29T14:12:31;9.70;99.90
17178;DHT22;8704;52.006;4.374;2022-12-29T14:15:05;9.50;99.90
17178;DHT22;8704;52.006;4.374;2022-12-29T14:17:34;9.50;99.90
17178;DHT22;8704;52.006;4.374;2022-12-29T14:20:03;9.40;99.90
17178;DHT22;8704;52.006;4.374;2022-12-29T14:22:34;9.40;99.90
17178;DHT22;8704;52.006;4.374;2022-12-29T14:25:04;9.40;99.90
17178;DHT22;8704;52.006;4.374;2022-12-29T14:27:52;9.40;99.90
17178;DHT22;8704;52.006;4.374;2022-12-29T14:33:22;9.40;99.90
17178;DHT22;8704;52.006;4.374;2022-12-29T14:35:53;9.30;99.90
17178;DHT22;8704;52.006;4.374;2022-12-29T14:38:27;9.30;99.90
17178;DHT22;8704;52.006;4.374;2022-12-29T14:41:17;9.80;99.90
17178;DHT22;8704;52.006;4.374;2022-12-29T14:43:56;9.30;99.90
17178;DHT22;8704;52.006;4.374;2022-12-29T14:46:25;9.40;99.90
17178;DHT22;8704;52.006;4.374;2022-12-29T14:48:56;9.30;99.90
17178;DHT22;8704;52.006;4.374;2022-12-29T14:51:34;9.30;99.90
17178;DHT22;8704;52.006;4.374;2022-12-29T15:00:17;9.20;99.90
17178;DHT22;8704;52.006;4.374;2022-12-29T15:02:49;9.20;99.90
17178;DHT22;8704;52.006;4.374;2022-12-29T15:05:28;9.20;99.90
17178;DHT22;8704;52.006;4.374;2022-12-29T15:07:58;9.20;99.90
17178;DHT22;8704;52.006;4.374;2022-12-29T15:10:34;9.20;99.90
17178;DHT22;8704;52.006;4.374;2022-12-29T15:13:10;9.20;99.90
17178;DHT22;8704;52.006;4.374;2022-12-29T15:15:41;9.50;99.90
17178;DHT22;8704;52.006;4.374;2022-12-29T15:18:22;9.10;99.90
17178;DHT22;8704;52.006;4.374;2022-12-29T15:20:53;9.10;99.90
17178;DHT22;8704;52.006;4.374;2022-12-29T15:23:21;9.60;99.90
17178;DHT22;8704;52.006;4.374;2022-12-29T15:25:53;10.10;99.90
17178;DHT22;8704;52.006;4.374;2022-12-29T15:28:24;9.20;99.90
17178;DHT22;8704;52.006;4.374;2022-12-29T15:30:55;9.10;99.90
17178;DHT22;8704;52.006;4.374;2022-12-29T15:33:27;9.10;99.90
17178;DHT22;8704;52.006;4.374;2022-12-29T15:35:57;9.00;99.90
17178;DHT22;8704;52.006;4.374;2022-12-29T15:38:30;9.00;99.90
17178;DHT22;8704;52.006;4.374;2022-12-29T15:44:01;8.90;99.90
17178;DHT22;8704;52.006;4.374;2022-12-29T15:46:32;8.90;99.90
17178;DHT22;8704;52.006;4.374;2022-12-29T15:49:05;8.80;99.90
17178;DHT22;8704;52.006;4.374;2022-12-29T15:51:35;9.50;99.90
17178;DHT22;8704;52.006;4.374;2022-12-29T15:54:05;8.70;99.90
17178;DHT22;8704;52.006;4.374;2022-12-29T15:56:33;8.70;99.90
17178;DHT22;8704;52.006;4.374;2022-12-29T15:59:03;8.60;99.90
17178;DHT22;8704;52.006;4.374;2022-12-29T16:01:32;8.70;99.90
17178;DHT22;8704;52.006;4.374;2022-12-29T16:04:05;8.70;99.90
17178;DHT22;8704;52.006;4.374;2022-12-29T16:06:36;8.60;99.90
17178;DHT22;8704;52.006;4.374;2022-12-29T16:09:06;8.50;99.90
17178;DHT22;8704;52.006;4.374;2022-12-29T16:11:36;9.00;99.90
17178;DHT22;8704;52.006;4.374;2022-12-29T16:14:13;8.50;99.90
17178;DHT22;8704;52.006;4.374;2022-12-29T16:16:44;8.40;99.90
17178;DHT22;8704;52.006;4.374;2022-12-29T16:19:15;9.20;99.90
17178;DHT22;8704;52.006;4.374;2022-12-29T16:21:46;8.40;99.90
17178;DHT22;8704;52.006;4.374;2022-12-29T16:24:16;8.40;99.90
17178;DHT22;8704;52.006;4.374;2022-12-29T16:26:48;8.40;99.90
17178;DHT22;8704;52.006;4.374;2022-12-29T16:29:19;8.40;99.90
17178;DHT22;8704;52.006;4.374;2022-12-29T16:31:51;8.70;99.90
17178;DHT22;8704;52.006;4.374;2022-12-29T16:34:29;8.30;99.90
17178;DHT22;8704;52.006;4.374;2022-12-29T16:36:59;8.30;99.90
17178;DHT22;8704;52.006;4.374;2022-12-29T16:39:30;8.30;99.90
17178;DHT22;8704;52.006;4.374;2022-12-29T16:41:59;8.20;99.90
17178;DHT22;8704;52.006;4.374;2022-12-29T16:44:30;8.90;99.90
17178;DHT22;8704;52.006;4.374;2022-12-29T16:47:16;7.90;99.90
17178;DHT22;8704;52.006;4.374;2022-12-29T16:49:49;8.20;99.90
17178;DHT22;8704;52.006;4.374;2022-12-29T16:52:18;8.20;99.90